Time;durP1;ratioP1;P1;durP2;ratioP2;P2;SDS_P1;SDS_P2;PMS_P1;PMS_P2;Temp;Humidity;BMP_temperature;BMP_pressure;BME280_temperature;BME280_humidity;BME280_pressure;Samples;Min_cycle;Max_cycle;Signal;HPM_P1;HPM_P2
2022/06/05 00:02:39;;;;;;;7.83;6.03;;;;;;;;;;4959515;28;20027;-72
2022/06/05 00:05:04;;;;;;;9.80;5.85;;;;;;;;;;4931555;28;20108;-72
2022/06/05 00:07:45;;;;;;;9.60;6.20;;;;;;;;;;4966695;28;20050;-71
2022/06/05 00:10:16;;;;;;;10.23;6.28;;;;;;;;;;4964192;28;20022;-71
2022/06/05 00:12:57;;;;;;;9.88;5.80;;;;;;;;;;4961067;28;20745;-68
2022/06/05 00:15:22;;;;;;;9.15;6.05;;;;;;;;;;4957299;28;20095;-73
2022/06/05 00:17:47;;;;;;;11.48;5.93;;;;;;;;;;4961237;28;20027;-73
2022/06/05 00:20:13;;;;;;;11.93;6.18;;;;;;;;;;4961131;28;20030;-74
2022/06/05 00:22:38;;;;;;;7.47;5.70;;;;;;;;;;4961480;28;20065;-71
2022/06/05 00:25:04;;;;;;;16.50;6.35;;;;;;;;;;4963579;28;20066;-71
2022/06/05 00:27:38;;;;;;;11.88;6.90;;;;;;;;;;4957599;28;20070;-71
2022/06/05 00:30:06;;;;;;;13.18;6.50;;;;;;;;;;4966693;28;20603;-71
2022/06/05 00:32:34;;;;;;;12.57;6.93;;;;;;;;;;4966278;28;20054;-70
2022/06/05 00:34:59;;;;;;;8.95;6.60;;;;;;;;;;4966299;28;20034;-70
2022/06/05 00:37:24;;;;;;;10.20;6.65;;;;;;;;;;4972370;28;20038;-71
2022/06/05 00:40:05;;;;;;;9.98;6.32;;;;;;;;;;4966257;28;20435;-70
2022/06/05 00:42:32;;;;;;;10.98;6.95;;;;;;;;;;4959601;28;20143;-72
2022/06/05 00:44:59;;;;;;;10.60;7.00;;;;;;;;;;4961037;28;20054;-71
2022/06/05 00:47:29;;;;;;;10.85;6.35;;;;;;;;;;4964724;28;20074;-68
2022/06/05 00:50:00;;;;;;;11.30;6.90;;;;;;;;;;4962563;28;20149;-70
2022/06/05 00:52:27;;;;;;;12.02;6.45;;;;;;;;;;4960951;28;20030;-71
2022/06/05 00:54:52;;;;;;;13.43;6.97;;;;;;;;;;4960871;28;20030;-71
2022/06/05 00:57:18;;;;;;;9.38;6.68;;;;;;;;;;4970278;28;20031;-72
2022/06/05 00:59:44;;;;;;;11.05;7.30;;;;;;;;;;4959476;28;20035;-70
2022/06/05 01:02:10;;;;;;;13.10;6.82;;;;;;;;;;4957230;28;20110;-74
2022/06/05 01:04:37;;;;;;;10.00;7.15;;;;;;;;;;4961411;28;20116;-70
2022/06/05 01:07:02;;;;;;;15.23;7.13;;;;;;;;;;4967789;28;20027;-73
2022/06/05 01:09:27;;;;;;;14.38;7.07;;;;;;;;;;4963299;28;20465;-72
2022/06/05 01:12:02;;;;;;;10.30;7.53;;;;;;;;;;4960160;28;20043;-73
2022/06/05 01:14:30;;;;;;;10.65;6.80;;;;;;;;;;4959565;28;20265;-72
2022/06/05 01:17:01;;;;;;;11.23;6.70;;;;;;;;;;4961329;28;20117;-72
2022/06/05 01:19:38;;;;;;;12.20;7.13;;;;;;;;;;4956846;28;20022;-72
2022/06/05 01:22:06;;;;;;;8.18;6.43;;;;;;;;;;4959710;28;20499;-71
2022/06/05 01:24:41;;;;;;;10.20;6.85;;;;;;;;;;4962050;28;20022;-70
2022/06/05 01:27:10;;;;;;;11.75;7.30;;;;;;;;;;4960204;28;20063;-71
2022/06/05 01:29:37;;;;;;;12.88;6.82;;;;;;;;;;4967858;28;20018;-67
2022/06/05 01:32:22;;;;;;;9.93;6.57;;;;;;;;;;4961471;28;20034;-72
2022/06/05 01:34:51;;;;;;;8.63;6.30;;;;;;;;;;4940211;28;20050;-71
2022/06/05 01:37:35;;;;;;;10.55;6.65;;;;;;;;;;4959735;28;20031;-71
2022/06/05 01:40:04;;;;;;;12.25;7.07;;;;;;;;;;4959130;28;20264;-69
2022/06/05 01:42:31;;;;;;;12.73;6.53;;;;;;;;;;4959906;28;20114;-73
2022/06/05 01:45:02;;;;;;;9.98;6.53;;;;;;;;;;4961143;28;20069;-74
2022/06/05 01:47:33;;;;;;;11.13;7.03;;;;;;;;;;4960749;28;20018;-72
2022/06/05 01:49:58;;;;;;;12.77;7.28;;;;;;;;;;4967699;28;20541;-71
2022/06/05 01:52:23;;;;;;;12.60;7.63;;;;;;;;;;4961477;28;20477;-74
2022/06/05 01:55:00;;;;;;;10.40;7.00;;;;;;;;;;4962419;28;20354;-71
2022/06/05 01:57:26;;;;;;;13.75;7.00;;;;;;;;;;4958006;28;20486;-70
2022/06/05 01:59:55;;;;;;;13.80;7.35;;;;;;;;;;4959808;28;20113;-70
2022/06/05 02:02:24;;;;;;;10.88;7.70;;;;;;;;;;4952927;28;20037;-71
2022/06/05 02:04:52;;;;;;;11.00;7.88;;;;;;;;;;4954038;28;20496;-71
2022/06/05 02:07:18;;;;;;;13.23;7.57;;;;;;;;;;4957649;28;20482;-71
2022/06/05 02:09:51;;;;;;;12.13;7.93;;;;;;;;;;4964867;28;20049;-71
2022/06/05 02:12:17;;;;;;;17.85;7.72;;;;;;;;;;4958503;28;20265;-74
2022/06/05 02:14:42;;;;;;;11.65;6.70;;;;;;;;;;4956872;28;20078;-73
2022/06/05 02:17:08;;;;;;;13.57;7.43;;;;;;;;;;4959172;28;20446;-72
2022/06/05 02:19:34;;;;;;;10.93;7.25;;;;;;;;;;4958958;28;20037;-71
2022/06/05 02:22:02;;;;;;;11.38;7.20;;;;;;;;;;4956251;28;20150;-71
2022/06/05 02:24:27;;;;;;;12.05;7.80;;;;;;;;;;4962339;28;20052;-71
2022/06/05 02:26:52;;;;;;;10.97;7.23;;;;;;;;;;4962433;28;20030;-71
2022/06/05 02:29:22;;;;;;;12.03;6.87;;;;;;;;;;4957501;28;20272;-72
2022/06/05 02:32:06;;;;;;;12.27;7.13;;;;;;;;;;4957533;28;20034;-75
2022/06/05 02:34:38;;;;;;;13.75;7.53;;;;;;;;;;4959128;28;20838;-74
2022/06/05 02:37:11;;;;;;;11.07;7.72;;;;;;;;;;4959082;28;20030;-71
2022/06/05 02:39:45;;;;;;;14.23;7.18;;;;;;;;;;4957501;28;20027;-73
2022/06/05 02:42:30;;;;;;;9.77;7.28;;;;;;;;;;4956592;28;20469;-72
2022/06/05 02:45:13;;;;;;;17.88;7.55;;;;;;;;;;4962064;28;20023;-71
2022/06/05 02:47:47;;;;;;;12.60;7.57;;;;;;;;;;4970081;28;20465;-73
2022/06/05 02:50:26;;;;;;;14.10;7.35;;;;;;;;;;4957364;28;20035;-72
2022/06/05 02:52:58;;;;;;;12.20;7.00;;;;;;;;;;4959136;28;20031;-72
2022/06/05 02:55:23;;;;;;;12.10;7.47;;;;;;;;;;4957344;28;20063;-74
2022/06/05 02:57:49;;;;;;;10.63;6.80;;;;;;;;;;4956419;28;20496;-73
2022/06/05 03:00:17;;;;;;;14.85;7.35;;;;;;;;;;4975211;28;20330;-73
2022/06/05 03:05:26;;;;;;;13.88;7.45;;;;;;;;;;4961931;28;20053;-71
2022/06/05 03:07:51;;;;;;;13.52;7.28;;;;;;;;;;4957572;28;20145;-77
2022/06/05 03:10:17;;;;;;;13.90;7.25;;;;;;;;;;4958617;28;20114;-73
2022/06/05 03:12:42;;;;;;;11.40;7.40;;;;;;;;;;4957958;28;20076;-74
2022/06/05 03:15:07;;;;;;;11.00;7.75;;;;;;;;;;4957520;28;20054;-75
2022/06/05 03:17:33;;;;;;;13.95;7.18;;;;;;;;;;4962530;28;20038;-70
2022/06/05 03:19:58;;;;;;;10.02;6.55;;;;;;;;;;4956955;28;20022;-74
2022/06/05 03:22:24;;;;;;;11.77;6.72;;;;;;;;;;4956974;28;20019;-75
2022/06/05 03:24:49;;;;;;;12.55;8.10;;;;;;;;;;4960127;28;20027;-74
2022/06/05 03:27:14;;;;;;;14.10;8.00;;;;;;;;;;4960252;28;20168;-74
2022/06/05 03:29:39;;;;;;;12.77;7.07;;;;;;;;;;4959553;28;20919;-76
2022/06/05 03:32:05;;;;;;;12.73;6.73;;;;;;;;;;4956669;28;20277;-73
2022/06/05 03:34:30;;;;;;;12.65;7.10;;;;;;;;;;4957541;28;20323;-75
2022/06/05 03:36:55;;;;;;;11.95;7.35;;;;;;;;;;4958403;28;20023;-75
2022/06/05 03:39:20;;;;;;;8.77;6.93;;;;;;;;;;4959531;28;20030;-75
2022/06/05 03:41:46;;;;;;;11.93;6.80;;;;;;;;;;4960374;28;20802;-75
2022/06/05 03:44:12;;;;;;;10.57;7.45;;;;;;;;;;4965506;28;20276;-76
2022/06/05 03:46:39;;;;;;;12.02;7.60;;;;;;;;;;4953439;28;20050;-75
2022/06/05 03:49:05;;;;;;;14.85;7.20;;;;;;;;;;4962581;28;20165;-75
2022/06/05 03:51:30;;;;;;;12.48;7.50;;;;;;;;;;4960963;28;20915;-74
2022/06/05 03:53:55;;;;;;;9.98;6.85;;;;;;;;;;4960385;28;20260;-76
2022/06/05 03:56:23;;;;;;;11.07;7.27;;;;;;;;;;4963456;28;20130;-75
2022/06/05 03:58:48;;;;;;;11.70;7.13;;;;;;;;;;4957247;28;20655;-76
2022/06/05 04:01:16;;;;;;;12.50;7.90;;;;;;;;;;4970247;28;20525;-76
2022/06/05 04:03:41;;;;;;;14.15;7.82;;;;;;;;;;4962563;28;20022;-75
2022/06/05 04:06:07;;;;;;;11.27;7.72;;;;;;;;;;4964740;28;20037;-76
2022/06/05 04:08:34;;;;;;;11.68;7.22;;;;;;;;;;4962285;28;20041;-76
2022/06/05 04:10:59;;;;;;;12.73;7.25;;;;;;;;;;4964539;28;20074;-76
2022/06/05 04:13:24;;;;;;;14.10;8.07;;;;;;;;;;4959310;28;20451;-75
2022/06/05 04:15:49;;;;;;;13.93;7.40;;;;;;;;;;4967627;28;20037;-76
2022/06/05 04:18:14;;;;;;;14.20;7.77;;;;;;;;;;4965539;28;20465;-76
2022/06/05 04:20:40;;;;;;;15.10;7.77;;;;;;;;;;4960682;28;20276;-76
2022/06/05 04:23:08;;;;;;;14.13;8.15;;;;;;;;;;4963619;28;20381;-77
2022/06/05 04:25:33;;;;;;;13.80;8.30;;;;;;;;;;4954776;28;20058;-75
2022/06/05 04:27:58;;;;;;;13.17;8.03;;;;;;;;;;4963223;28;20122;-75
2022/06/05 04:30:26;;;;;;;16.27;8.00;;;;;;;;;;4966460;28;20022;-76
2022/06/05 04:32:51;;;;;;;14.30;8.85;;;;;;;;;;4963791;28;20106;-75
2022/06/05 04:35:16;;;;;;;14.82;9.77;;;;;;;;;;4969547;28;20093;-76
2022/06/05 04:37:41;;;;;;;15.77;7.97;;;;;;;;;;4962265;28;20150;-77
2022/06/05 04:40:07;;;;;;;17.07;8.80;;;;;;;;;;4974712;28;20391;-73
2022/06/05 04:42:32;;;;;;;11.00;7.28;;;;;;;;;;4980339;28;20372;-75
2022/06/05 04:44:58;;;;;;;12.55;8.20;;;;;;;;;;4964877;28;20469;-75
2022/06/05 04:47:23;;;;;;;11.80;8.02;;;;;;;;;;4959339;28;20381;-75
2022/06/05 04:49:48;;;;;;;16.85;8.95;;;;;;;;;;4968475;28;20077;-75
2022/06/05 04:52:14;;;;;;;13.77;8.40;;;;;;;;;;4958427;28;20026;-75
2022/06/05 04:54:39;;;;;;;14.20;8.25;;;;;;;;;;4964240;28;20073;-75
2022/06/05 04:57:04;;;;;;;12.57;7.78;;;;;;;;;;4963113;28;20141;-74
2022/06/05 04:59:30;;;;;;;13.68;8.82;;;;;;;;;;4963558;28;20106;-75
2022/06/05 05:01:56;;;;;;;16.60;9.00;;;;;;;;;;4958428;28;20687;-74
2022/06/05 05:04:21;;;;;;;14.02;8.30;;;;;;;;;;4963400;28;20015;-73
2022/06/05 05:06:46;;;;;;;16.00;9.20;;;;;;;;;;4960080;28;20045;-75
2022/06/05 05:09:11;;;;;;;11.63;7.87;;;;;;;;;;4961447;28;20063;-75
2022/06/05 05:11:37;;;;;;;13.85;8.05;;;;;;;;;;4960656;28;20302;-75
2022/06/05 05:14:02;;;;;;;15.70;8.48;;;;;;;;;;4961464;28;20424;-76
2022/06/05 05:16:28;;;;;;;16.70;8.63;;;;;;;;;;4960294;28;20026;-76
2022/06/05 05:18:54;;;;;;;15.77;8.98;;;;;;;;;;4960252;28;20035;-75
2022/06/05 05:21:21;;;;;;;15.18;8.60;;;;;;;;;;4959649;28;20026;-76
2022/06/05 05:23:47;;;;;;;14.07;8.07;;;;;;;;;;4963970;28;20038;-76
2022/06/05 05:26:14;;;;;;;14.85;9.48;;;;;;;;;;4960260;28;20647;-76
2022/06/05 05:28:39;;;;;;;15.18;8.43;;;;;;;;;;4957020;28;20022;-77
2022/06/05 05:31:12;;;;;;;13.57;8.77;;;;;;;;;;4967309;28;20025;-71
2022/06/05 05:33:38;;;;;;;15.52;8.77;;;;;;;;;;4960118;28;20036;-76
2022/06/05 05:36:03;;;;;;;13.43;9.57;;;;;;;;;;4960796;28;20237;-76
2022/06/05 05:38:29;;;;;;;15.32;9.48;;;;;;;;;;4963404;28;20061;-75
2022/06/05 05:43:38;;;;;;;17.05;10.13;;;;;;;;;;4965775;28;20291;-75
2022/06/05 05:46:07;;;;;;;19.17;10.63;;;;;;;;;;4960998;28;20053;-72
2022/06/05 05:48:32;;;;;;;18.52;9.88;;;;;;;;;;4962154;28;20031;-76
2022/06/05 05:50:57;;;;;;;17.25;9.43;;;;;;;;;;4964149;28;20315;-76
2022/06/05 05:53:22;;;;;;;13.20;8.77;;;;;;;;;;4965798;28;20355;-76
2022/06/05 05:55:47;;;;;;;14.47;8.97;;;;;;;;;;4958003;28;20082;-76
2022/06/05 05:58:12;;;;;;;13.65;9.55;;;;;;;;;;4960464;28;20022;-74
2022/06/05 06:00:38;;;;;;;13.00;7.47;;;;;;;;;;4955373;28;20031;-75
2022/06/05 06:03:03;;;;;;;15.38;8.40;;;;;;;;;;4959378;28;20046;-76
2022/06/05 06:05:30;;;;;;;12.87;8.90;;;;;;;;;;4959754;28;20098;-76
2022/06/05 06:07:55;;;;;;;11.80;8.38;;;;;;;;;;4960582;28;20281;-76
2022/06/05 06:10:20;;;;;;;16.90;9.30;;;;;;;;;;4958910;28;20027;-75
2022/06/05 06:12:45;;;;;;;14.73;8.45;;;;;;;;;;4958512;28;20031;-75
2022/06/05 06:15:11;;;;;;;15.07;8.43;;;;;;;;;;4956835;28;20026;-72
2022/06/05 06:17:36;;;;;;;13.83;9.37;;;;;;;;;;4955806;28;20045;-76
2022/06/05 06:20:01;;;;;;;11.57;9.32;;;;;;;;;;4956662;28;20700;-72
2022/06/05 06:22:26;;;;;;;11.65;8.60;;;;;;;;;;4958827;28;20114;-75
2022/06/05 06:24:52;;;;;;;19.80;9.90;;;;;;;;;;4958850;28;20030;-76
2022/06/05 06:27:17;;;;;;;14.98;8.93;;;;;;;;;;4956859;28;21376;-76
2022/06/05 06:29:42;;;;;;;11.88;8.25;;;;;;;;;;4956786;28;20479;-75
2022/06/05 06:32:08;;;;;;;14.35;8.77;;;;;;;;;;4960467;28;20169;-76
2022/06/05 06:34:33;;;;;;;12.43;8.90;;;;;;;;;;4958344;28;20117;-72
2022/06/05 06:36:58;;;;;;;12.40;8.35;;;;;;;;;;4958926;28;20523;-75
2022/06/05 06:39:23;;;;;;;12.30;8.73;;;;;;;;;;4957328;28;20037;-75
2022/06/05 06:41:49;;;;;;;11.77;8.73;;;;;;;;;;4963148;28;20023;-74
2022/06/05 06:44:14;;;;;;;12.23;8.25;;;;;;;;;;4959936;28;20035;-73
2022/06/05 06:46:39;;;;;;;10.95;8.35;;;;;;;;;;4957357;28;20035;-75
2022/06/05 06:49:05;;;;;;;10.00;8.07;;;;;;;;;;4956567;28;20085;-72
2022/06/05 06:51:30;;;;;;;11.52;7.85;;;;;;;;;;4957511;28;20331;-74
2022/06/05 06:53:55;;;;;;;11.45;7.97;;;;;;;;;;4961069;28;20063;-75
2022/06/05 06:56:22;;;;;;;14.03;8.43;;;;;;;;;;4963182;28;20038;-75
2022/06/05 06:58:47;;;;;;;13.77;8.27;;;;;;;;;;4959839;28;20027;-75
2022/06/05 07:01:13;;;;;;;12.57;8.30;;;;;;;;;;4958269;28;20044;-74
2022/06/05 07:03:38;;;;;;;12.80;9.07;;;;;;;;;;4959405;28;20027;-72
2022/06/05 07:06:05;;;;;;;11.85;8.50;;;;;;;;;;4966894;28;20466;-71
2022/06/05 07:08:31;;;;;;;10.30;7.97;;;;;;;;;;4967474;28;20030;-76
2022/06/05 07:10:56;;;;;;;18.48;8.82;;;;;;;;;;4957812;28;20031;-73
2022/06/05 07:13:22;;;;;;;11.05;8.50;;;;;;;;;;4957151;28;20030;-73
2022/06/05 07:15:47;;;;;;;13.30;8.77;;;;;;;;;;4955628;28;20082;-74
2022/06/05 07:18:12;;;;;;;10.33;8.43;;;;;;;;;;4959812;28;20461;-72
2022/06/05 07:20:39;;;;;;;12.97;8.87;;;;;;;;;;4972658;28;20276;-72
2022/06/05 07:23:04;;;;;;;10.68;8.20;;;;;;;;;;4974191;28;20081;-72
2022/06/05 07:25:31;;;;;;;11.40;8.88;;;;;;;;;;4970965;28;20023;-73
2022/06/05 07:27:56;;;;;;;10.98;7.95;;;;;;;;;;4966465;28;20041;-73
2022/06/05 07:30:21;;;;;;;11.07;8.33;;;;;;;;;;4962749;28;20018;-75
2022/06/05 07:32:47;;;;;;;9.20;7.95;;;;;;;;;;4963174;28;20273;-73
2022/06/05 07:35:12;;;;;;;9.55;7.90;;;;;;;;;;4966382;28;20538;-73
2022/06/05 07:37:38;;;;;;;12.65;8.23;;;;;;;;;;4964370;28;20030;-75
2022/06/05 07:40:03;;;;;;;9.90;7.82;;;;;;;;;;4957654;28;20414;-73
2022/06/05 07:42:29;;;;;;;10.65;8.00;;;;;;;;;;4958765;28;20440;-73
2022/06/05 07:44:54;;;;;;;10.60;7.90;;;;;;;;;;4958791;28;20031;-72
2022/06/05 07:47:19;;;;;;;12.80;8.50;;;;;;;;;;4967761;28;20280;-73
2022/06/05 07:49:44;;;;;;;8.70;7.90;;;;;;;;;;4960861;28;20312;-74
2022/06/05 07:54:54;;;;;;;15.23;9.15;;;;;;;;;;4952978;28;20324;-72
2022/06/05 07:57:19;;;;;;;8.93;8.03;;;;;;;;;;4962082;28;20038;-73
2022/06/05 07:59:46;;;;;;;10.30;8.73;;;;;;;;;;4964296;28;20283;-72
2022/06/05 08:02:19;;;;;;;10.65;9.13;;;;;;;;;;4968071;28;20045;-69
2022/06/05 08:04:44;;;;;;;12.75;9.77;;;;;;;;;;4966937;28;20023;-72
2022/06/05 08:07:10;;;;;;;10.38;8.18;;;;;;;;;;4972318;28;20054;-72
2022/06/05 08:09:36;;;;;;;11.57;8.52;;;;;;;;;;4982919;28;20508;-73
2022/06/05 08:12:02;;;;;;;12.35;8.50;;;;;;;;;;4971811;28;20061;-73
2022/06/05 08:14:27;;;;;;;12.60;9.00;;;;;;;;;;4976429;28;20029;-71
2022/06/05 08:16:52;;;;;;;10.35;7.68;;;;;;;;;;4967432;28;20380;-72
2022/06/05 08:19:19;;;;;;;12.70;7.80;;;;;;;;;;4975716;28;20022;-72
2022/06/05 08:21:46;;;;;;;8.95;8.05;;;;;;;;;;4968299;28;20735;-71
2022/06/05 08:24:11;;;;;;;12.85;7.80;;;;;;;;;;4960218;28;20460;-71
2022/06/05 08:26:36;;;;;;;7.80;7.00;;;;;;;;;;4968525;28;20026;-72
2022/06/05 08:29:02;;;;;;;9.43;8.53;;;;;;;;;;4960402;28;20035;-71
2022/06/05 08:31:29;;;;;;;10.23;9.18;;;;;;;;;;4969796;28;20073;-70
2022/06/05 08:33:55;;;;;;;9.45;7.60;;;;;;;;;;4968208;28;20042;-72
2022/06/05 08:36:20;;;;;;;10.27;7.45;;;;;;;;;;4962165;28;20477;-72
2022/06/05 08:41:30;;;;;;;8.80;7.70;;;;;;;;;;4963304;28;20441;-72
2022/06/05 08:43:55;;;;;;;10.77;8.20;;;;;;;;;;4964185;28;20364;-73
2022/06/05 08:46:24;;;;;;;9.93;8.20;;;;;;;;;;4962741;28;20442;-71
2022/06/05 08:48:54;;;;;;;11.13;8.50;;;;;;;;;;4969632;28;20065;-73
2022/06/05 08:51:37;;;;;;;8.70;7.90;;;;;;;;;;4962626;28;20125;-72
2022/06/05 08:54:10;;;;;;;12.68;8.15;;;;;;;;;;4961176;28;20031;-72
2022/06/05 08:56:43;;;;;;;8.65;7.75;;;;;;;;;;4960839;28;20484;-75
2022/06/05 08:59:11;;;;;;;10.27;9.38;;;;;;;;;;4961287;28;20049;-72
2022/06/05 09:01:41;;;;;;;9.27;8.38;;;;;;;;;;4957850;28;20027;-71
2022/06/05 09:04:18;;;;;;;8.40;7.68;;;;;;;;;;4959207;28;20015;-70
2022/06/05 09:06:55;;;;;;;10.40;8.48;;;;;;;;;;4965612;28;20145;-72
2022/06/05 09:09:22;;;;;;;8.20;7.43;;;;;;;;;;4965636;28;20150;-71
2022/06/05 09:11:52;;;;;;;9.73;8.68;;;;;;;;;;4966338;28;20041;-71
2022/06/05 09:14:23;;;;;;;10.43;8.52;;;;;;;;;;4972368;28;20431;-72
2022/06/05 09:16:50;;;;;;;9.57;8.57;;;;;;;;;;4960802;28;20485;-72
2022/06/05 09:19:17;;;;;;;9.10;8.30;;;;;;;;;;4963551;28;20686;-72
2022/06/05 09:21:56;;;;;;;9.45;8.48;;;;;;;;;;4967409;28;20022;-69
2022/06/05 09:24:30;;;;;;;8.65;7.88;;;;;;;;;;4964623;28;20027;-72
2022/06/05 09:26:59;;;;;;;10.35;8.57;;;;;;;;;;4964612;28;20027;-72
2022/06/05 09:29:28;;;;;;;9.68;8.77;;;;;;;;;;4959971;28;20117;-72
2022/06/05 09:32:12;;;;;;;10.10;9.20;;;;;;;;;;4966092;28;20109;-72
2022/06/05 09:34:40;;;;;;;9.18;8.18;;;;;;;;;;4959829;28;20567;-72
2022/06/05 09:37:15;;;;;;;9.55;8.65;;;;;;;;;;4962685;28;20511;-72
2022/06/05 09:39:45;;;;;;;11.77;9.10;;;;;;;;;;4964645;28;20304;-72
2022/06/05 09:42:19;;;;;;;10.75;8.85;;;;;;;;;;4962688;28;20023;-72
2022/06/05 09:45:02;;;;;;;11.55;9.25;;;;;;;;;;4962563;28;20031;-73
2022/06/05 09:47:30;;;;;;;10.60;8.52;;;;;;;;;;4957568;28;20117;-73
2022/06/05 09:49:58;;;;;;;11.02;9.65;;;;;;;;;;4964800;28;20026;-74
2022/06/05 09:52:25;;;;;;;10.68;9.30;;;;;;;;;;4971263;28;20452;-73
2022/06/05 09:54:53;;;;;;;10.15;9.15;;;;;;;;;;4965247;28;20042;-74
2022/06/05 10:00:02;;;;;;;;;;;;;;;;;;4969445;28;20129;-72
2022/06/05 10:02:28;;;;;;;17.10;9.88;;;;;;;;;;4964839;28;20331;-70
2022/06/05 10:04:54;;;;;;;11.35;9.43;;;;;;;;;;4967285;28;20501;-71
2022/06/05 10:07:25;;;;;;;10.82;9.70;;;;;;;;;;4969596;28;20041;-71
2022/06/05 10:09:50;;;;;;;9.95;8.95;;;;;;;;;;4969699;28;20078;-70
2022/06/05 10:12:20;;;;;;;12.45;10.25;;;;;;;;;;4970055;28;20022;-71
2022/06/05 10:14:47;;;;;;;10.82;8.95;;;;;;;;;;4965556;28;20027;-71
2022/06/05 10:17:42;;;;;;;11.20;10.00;;;;;;;;;;4963277;28;20077;-72
2022/06/05 10:20:07;;;;;;;10.85;9.70;;;;;;;;;;4958255;28;20038;-71
2022/06/05 10:22:33;;;;;;;11.40;9.23;;;;;;;;;;4969057;28;20023;-71
2022/06/05 10:25:16;;;;;;;10.55;9.55;;;;;;;;;;4964371;28;20448;-72
2022/06/05 10:27:50;;;;;;;11.30;9.27;;;;;;;;;;4964018;28;20279;-71
2022/06/05 10:30:16;;;;;;;10.35;9.32;;;;;;;;;;4964539;28;20166;-70
2022/06/05 10:32:57;;;;;;;11.52;9.85;;;;;;;;;;4959674;28;20340;-72
2022/06/05 10:35:40;;;;;;;10.85;9.85;;;;;;;;;;4964859;28;20033;-71
2022/06/05 10:38:13;;;;;;;11.75;9.38;;;;;;;;;;4967429;28;20026;-71
2022/06/05 10:40:46;;;;;;;11.23;10.20;;;;;;;;;;4959813;28;20119;-72
2022/06/05 10:43:16;;;;;;;12.65;10.45;;;;;;;;;;4967610;28;20048;-72
2022/06/05 10:45:48;;;;;;;10.80;9.70;;;;;;;;;;4961699;28;20047;-72
2022/06/05 10:48:28;;;;;;;12.95;10.15;;;;;;;;;;4965774;28;20043;-72
2022/06/05 10:50:57;;;;;;;12.60;10.10;;;;;;;;;;4964384;28;20034;-72
2022/06/05 10:53:37;;;;;;;13.05;11.23;;;;;;;;;;4974468;28;20030;-72
2022/06/05 10:56:13;;;;;;;12.18;10.95;;;;;;;;;;4966827;28;20023;-72
2022/06/05 10:58:53;;;;;;;12.82;10.85;;;;;;;;;;4965303;28;20531;-72
2022/06/05 11:01:27;;;;;;;13.65;11.75;;;;;;;;;;4970638;28;20509;-72
2022/06/05 11:04:16;;;;;;;14.00;12.55;;;;;;;;;;4973256;28;20057;-71
2022/06/05 11:06:52;;;;;;;14.20;11.48;;;;;;;;;;4959926;28;20070;-72
2022/06/05 11:09:36;;;;;;;13.20;11.90;;;;;;;;;;4966194;28;20076;-72
2022/06/05 11:14:54;;;;;;;13.40;11.45;;;;;;;;;;4960056;28;20101;-72
2022/06/05 11:17:26;;;;;;;13.40;11.85;;;;;;;;;;4966807;28;20034;-72
2022/06/05 11:19:57;;;;;;;13.48;12.07;;;;;;;;;;4975576;28;20611;-73
2022/06/05 11:22:22;;;;;;;13.68;12.02;;;;;;;;;;4971819;28;20074;-71
2022/06/05 11:24:50;;;;;;;14.50;12.20;;;;;;;;;;4983922;28;20026;-72
2022/06/05 11:27:18;;;;;;;14.35;12.05;;;;;;;;;;4979761;28;20022;-72
2022/06/05 11:29:56;;;;;;;19.27;12.52;;;;;;;;;;4968147;28;20014;-72
2022/06/05 11:32:25;;;;;;;13.23;11.90;;;;;;;;;;4974670;28;20738;-72
2022/06/05 11:34:56;;;;;;;14.63;12.88;;;;;;;;;;4980343;28;20030;-72
2022/06/05 11:37:21;;;;;;;15.55;12.60;;;;;;;;;;4980234;28;20044;-72
2022/06/05 11:39:58;;;;;;;13.88;11.75;;;;;;;;;;4981548;28;20093;-72
2022/06/05 11:42:30;;;;;;;16.27;12.07;;;;;;;;;;4975741;28;20022;-71
2022/06/05 11:45:10;;;;;;;14.45;12.70;;;;;;;;;;4987000;28;20065;-73
2022/06/05 11:47:39;;;;;;;17.92;13.93;;;;;;;;;;4972066;28;20050;-71
2022/06/05 11:50:29;;;;;;;19.20;15.80;;;;;;;;;;4968738;28;20023;-70
2022/06/05 11:53:13;;;;;;;20.52;17.42;;;;;;;;;;4966437;28;20065;-72
2022/06/05 11:55:45;;;;;;;26.23;21.02;;;;;;;;;;4970098;28;20026;-73
2022/06/05 11:58:13;;;;;;;22.88;19.05;;;;;;;;;;4975219;28;20038;-73
2022/06/05 12:00:43;;;;;;;30.80;23.58;;;;;;;;;;4977243;28;20092;-75
2022/06/05 12:03:16;;;;;;;24.92;20.48;;;;;;;;;;4964353;28;20023;-71
2022/06/05 12:05:44;;;;;;;25.33;20.52;;;;;;;;;;4969153;28;20117;-72
2022/06/05 12:08:12;;;;;;;26.05;21.25;;;;;;;;;;4958957;28;20083;-71
2022/06/05 12:10:49;;;;;;;28.58;22.40;;;;;;;;;;4969930;28;20484;-71
2022/06/05 12:13:26;;;;;;;29.60;20.35;;;;;;;;;;4964613;28;20038;-70
2022/06/05 12:16:06;;;;;;;30.52;19.67;;;;;;;;;;4967158;28;20049;-69
2022/06/05 12:18:35;;;;;;;34.03;22.05;;;;;;;;;;4958199;28;20023;-68
2022/06/05 12:21:22;;;;;;;29.48;21.10;;;;;;;;;;4961363;28;20785;-69
2022/06/05 12:23:53;;;;;;;31.60;19.67;;;;;;;;;;4960962;28;20027;-71
2022/06/05 12:26:21;;;;;;;39.42;21.45;;;;;;;;;;4968636;28;20717;-68
2022/06/05 12:28:59;;;;;;;29.60;19.88;;;;;;;;;;4963801;28;20126;-68
2022/06/05 12:31:26;;;;;;;27.63;19.92;;;;;;;;;;4978260;28;20098;-68
2022/06/05 12:33:56;;;;;;;30.30;19.02;;;;;;;;;;4981104;28;20387;-67
2022/06/05 12:36:24;;;;;;;28.08;20.27;;;;;;;;;;4983029;28;20089;-70
2022/06/05 12:38:52;;;;;;;34.53;26.25;;;;;;;;;;4976774;28;20112;-68
2022/06/05 12:41:22;;;;;;;31.40;22.10;;;;;;;;;;4972221;28;20018;-69
2022/06/05 12:43:54;;;;;;;24.88;18.67;;;;;;;;;;4972721;28;20046;-69
2022/06/05 12:46:29;;;;;;;25.38;19.77;;;;;;;;;;4979038;28;20366;-69
2022/06/05 12:49:13;;;;;;;29.48;19.63;;;;;;;;;;4963027;28;20105;-69
2022/06/05 12:51:41;;;;;;;24.13;18.33;;;;;;;;;;4962242;28;20015;-71
2022/06/05 12:54:14;;;;;;;29.17;19.65;;;;;;;;;;4970086;28;20081;-71
2022/06/05 12:56:43;;;;;;;26.98;19.08;;;;;;;;;;4967111;28;20109;-70
2022/06/05 12:59:17;;;;;;;31.15;19.73;;;;;;;;;;4982880;28;20022;-71
2022/06/05 13:01:45;;;;;;;28.90;19.52;;;;;;;;;;4978930;28;20089;-71
2022/06/05 13:04:31;;;;;;;27.55;19.40;;;;;;;;;;4974940;28;20098;-70
2022/06/05 13:07:00;;;;;;;28.88;19.23;;;;;;;;;;4981119;28;20030;-70
2022/06/05 13:09:25;;;;;;;27.42;18.95;;;;;;;;;;4979725;28;20038;-71
2022/06/05 13:11:54;;;;;;;28.50;18.45;;;;;;;;;;4965828;28;20066;-70
2022/06/05 13:14:40;;;;;;;29.00;19.50;;;;;;;;;;4980604;28;20034;-70
2022/06/05 13:17:23;;;;;;;28.30;18.50;;;;;;;;;;4984336;28;20097;-70
2022/06/05 13:19:55;;;;;;;25.77;16.77;;;;;;;;;;4982172;28;20066;-70
2022/06/05 13:22:31;;;;;;;22.67;16.30;;;;;;;;;;4972484;28;20161;-71
2022/06/05 13:25:11;;;;;;;20.88;14.98;;;;;;;;;;4966149;28;20023;-71
2022/06/05 13:27:48;;;;;;;19.08;13.75;;;;;;;;;;4971770;28;20540;-71
2022/06/05 13:30:16;;;;;;;19.15;12.93;;;;;;;;;;4965808;28;20031;-70
2022/06/05 13:32:44;;;;;;;16.67;12.25;;;;;;;;;;4976055;28;20392;-71
2022/06/05 13:35:29;;;;;;;15.20;11.52;;;;;;;;;;4972579;28;20067;-72
2022/06/05 13:37:57;;;;;;;14.15;10.90;;;;;;;;;;4968583;28;20034;-70
2022/06/05 13:40:48;;;;;;;15.20;12.05;;;;;;;;;;4972249;28;20027;-71
2022/06/05 13:43:20;;;;;;;18.02;12.38;;;;;;;;;;4976565;28;20046;-72
2022/06/05 13:45:51;;;;;;;13.82;11.70;;;;;;;;;;4968694;28;20481;-71
2022/06/05 13:48:25;;;;;;;18.83;10.63;;;;;;;;;;4987578;28;20034;-69
2022/06/05 13:50:57;;;;;;;13.63;10.45;;;;;;;;;;4967894;28;20121;-69
2022/06/05 13:53:25;;;;;;;15.57;11.40;;;;;;;;;;4970804;28;20110;-71
2022/06/05 13:56:09;;;;;;;17.67;11.27;;;;;;;;;;4969290;28;20053;-72
2022/06/05 13:58:34;;;;;;;;;;;;;;;;;;4979885;28;20031;-69
2022/06/05 14:01:12;;;;;;;17.02;11.32;;;;;;;;;;4974517;28;20360;-71
2022/06/05 14:03:39;;;;;;;16.50;11.32;;;;;;;;;;4972073;28;20109;-70
2022/06/05 14:06:16;;;;;;;18.75;12.32;;;;;;;;;;4966335;28;20030;-70
2022/06/05 14:08:49;;;;;;;17.35;11.57;;;;;;;;;;4962747;28;20031;-70
2022/06/05 14:11:16;;;;;;;18.00;11.57;;;;;;;;;;4977350;28;20487;-69
2022/06/05 14:13:43;;;;;;;21.52;12.30;;;;;;;;;;4975935;28;20564;-70
2022/06/05 14:16:08;;;;;;;20.60;12.88;;;;;;;;;;4962657;28;20357;-69
2022/06/05 14:18:42;;;;;;;20.52;13.07;;;;;;;;;;4968054;28;20065;-71
2022/06/05 14:21:13;;;;;;;19.15;13.73;;;;;;;;;;4972862;28;20033;-72
2022/06/05 14:23:42;;;;;;;20.13;12.43;;;;;;;;;;4984638;28;20030;-69
2022/06/05 14:26:09;;;;;;;21.70;12.50;;;;;;;;;;4974772;28;20030;-69
2022/06/05 14:28:44;;;;;;;19.10;13.27;;;;;;;;;;4983155;28;20034;-72
2022/06/05 14:31:09;;;;;;;18.92;11.65;;;;;;;;;;4964813;28;20038;-71
2022/06/05 14:33:36;;;;;;;15.90;11.60;;;;;;;;;;4977626;28;20022;-70
2022/06/05 14:36:05;;;;;;;20.13;12.05;;;;;;;;;;4974034;28;20297;-71
2022/06/05 14:38:38;;;;;;;17.98;11.23;;;;;;;;;;4962462;28;20149;-70
2022/06/05 14:41:14;;;;;;;19.63;12.07;;;;;;;;;;4977834;28;20022;-71
2022/06/05 14:43:39;;;;;;;21.33;11.95;;;;;;;;;;4965635;28;20571;-70
2022/06/05 14:46:21;;;;;;;18.15;12.50;;;;;;;;;;4971549;28;20098;-69
2022/06/05 14:48:51;;;;;;;19.10;10.93;;;;;;;;;;4968456;28;20118;-70
2022/06/05 14:51:21;;;;;;;16.98;10.00;;;;;;;;;;4967561;28;20027;-70
2022/06/05 14:54:00;;;;;;;12.57;8.23;;;;;;;;;;4976825;28;20030;-70
2022/06/05 14:59:29;;;;;;;10.32;6.28;;;;;;;;;;4964038;28;20074;-68
2022/06/05 15:01:54;;;;;;;7.70;5.63;;;;;;;;;;4963842;28;20512;-68